x

San Francisco - 18nm West Of San Francisco, Ca (46026) Wave Buoy

4:50am - Sat 18th Apr 2015 All times are PDT. -7 hours from GMT.

  • Sig Wave height 7.9ft
  • Swell Direction
  • Peak Period 15s
  • Average Period 9s
  • Wind
    4mph
  • Sea Temp 52°f
  • Air Temp 51°f
  • Sea Pressure 1017.5mb
  • San Francisco - 18nm West Of San Francisco, Ca
  • San Francisco - 18nm West Of San Francisco, Ca

More Historic Weather Station data

Upgrade to MSW Pro to gain access to the past 30 days of data for over 8000 Wavebouys and Weather Stations around the globe.

Join Pro

Comparision Forecast

View Surf forecast
   
Sat 04/18 4:50am 8ft 15s 9s 4
mph
1017.5mb 52f 51f
3:50am 8ft 15s 9s 4 7 mph 1017.8mb 52f 51f
2:50am 8ft 16s 9s 4 9 mph 1018.1mb 52f 51f
1:50am 7ft 16s 8s 7 9 mph 1018.7mb 52f 51f
12:50am 8.5ft 15s 10s 4 9 mph 1018.7mb 51f 51f
Fri 04/17 11:50pm 8ft 15s 9s 7 11 mph 1018.7mb 51f 51f
10:50pm 8ft 15s 9s 11 16 mph 1018.6mb 51f 51f
9:50pm 9ft 14s 10s 11 16 mph 1018.6mb 52f 50f
8:50pm 9.5ft 15s 10s 13 16 mph 1018.2mb 52f 50f
7:50pm 9ft 15s 9s 13 16 mph 1018.1mb 52f 50f
6:50pm 9ft 15s 10s 13 18 mph 1018.2mb 53f 50f
5:50pm 10ft 15s 10s 11 13 mph 1018.4mb 53f 50f
4:50pm 9.5ft 16s 11s 11 16 mph 1018.6mb 53f 50f
3:50pm 9ft 16s 10s 7 11 mph 1019.2mb 54f 50f
2:50pm 7ft 16s 8s 4 7 mph 1019.6mb 54f 51f
1:50pm 8ft 16s 10s 4 7 mph 1019.9mb 53f 51f
12:50pm 9.5ft 16s 10s 4 7 mph 1020.3mb 52f 50f
11:50am 9ft 16s 10s 4 9 mph 1020.7mb 52f 50f
10:50am 9ft 16s 10s 7 9 mph 1020.2mb 52f 49f
9:50am 9ft 16s 10s 7 9 mph 1019.5mb 51f 50f
8:50am 9ft 17s 10s 4 7 mph 1019.3mb 51f 50f
7:50am 8.5ft 17s 10s 2 4 mph 1019.3mb 51f 51f
6:50am 8ft 17s 10s 2 7 mph 1018.8mb 51f 51f
5:50am 8ft 17s 10s 2 4 mph 1018.4mb 51f 51f
4:50am 9ft 17s 11s 4 7 mph 1018.3mb 51f 51f
3:50am 7.5ft 17s 10s 2 7 mph 1018.3mb 51f 52f
2:50am 7.5ft 19s 10s 7 9 mph 1018.1mb 51f 52f
1:50am 8ft 17s 10s 7 11 mph 1018.5mb 51f 52f
12:50am 8ft 19s 11s 7 9 mph 1018.5mb 51f 52f
Thu 04/16 11:50pm 8ft 19s 11s 7 9 mph 1018.3mb 52f 52f
10:50pm 9ft 19s 11s 7 11 mph 1017.9mb 52f 52f
9:50pm 9ft 19s 11s 11 16 mph 1017.6mb 52f 53f
8:50pm 9ft 19s 11s 11 16 mph 1016.9mb 52f 53f
7:50pm 8.5ft 19s 11s 13 16 mph 1016.2mb 53f 53f
6:50pm 8ft 21s 10s 13 16 mph 1016.2mb 53f 54f
5:50pm 7ft 21s 8s 11 13 mph 1016.4mb 53f 54f
4:50pm 8.5ft 21s 10s 11 13 mph 1016.7mb 53f 54f
3:50pm 7ft 21s 8s 11 13 mph 1016.7mb 52f 54f
2:50pm 7ft 21s 8s 16 18 mph 1016.9mb 52f 54f
1:50pm 8ft 11s 8s 11 13 mph 1017.5mb 52f 54f
12:50pm 7ft 11s 8s 11 13 mph 1017.8mb 52f 53f
11:50am 7ft 11s 8s 9 13 mph 1018.3mb 52f 53f
10:50am 7.5ft 12s 8s 7 11 mph 1018.1mb 51f 53f
9:50am 8ft 10s 8s 4 7 mph 1017.6mb 51f 54f
8:50am 7.5ft 9s 8s 4 7 mph 1017.3mb 50f 55f
7:50am 8ft 11s 8s  -  2 mph 1016.8mb 50f 53f
6:50am 8ft 10s 8s 4 7 mph 1016.8mb 50f 52f
5:50am 8ft 12s 8s 7 11 mph 1016.4mb 50f 54f
4:50am 8ft 12s 8s 9 13 mph 1016.2mb 50f 51f
3:50am 8ft 11s 7s 13 16 mph 1016.2mb 50f 52f
2:50am 8.5ft 8s 8s 16 18 mph 1016.2mb 50f 52f
1:50am 8.5ft 9s 8s 16 20 mph 1016.7mb 50f 52f
12:50am 9ft 12s 8s 4 9 mph 1017.2mb 50f 52f
Wed 04/15 11:50pm 8ft 12s 7s 7 9 mph 1017.6mb 50f 53f
10:50pm 8.5ft 12s 8s 7 9 mph 1017.8mb 50f 52f
9:50pm 9.5ft 12s 8s 7 9 mph 1017.8mb 50f 52f
8:50pm 10ft 12s 8s 13 18 mph 1017.6mb 50f 52f
7:50pm 9ft 12s 8s 16 20 mph 1017.4mb 50f 52f
6:50pm 9ft 12s 7s 18 20 mph 1017.7mb 50f 52f
5:50pm 9ft 11s 7s 20 27 mph 1018.2mb 50f 52f
4:50pm 9ft 12s 7s 20 25 mph 1018.5mb 50f 52f
3:50pm 8.5ft 11s 7s 20 22 mph 1019.5mb 50f 51f
2:50pm 9ft 11s 7s 18 22 mph 1020.2mb 50f 51f
1:50pm 8ft 9s 7s 16 20 mph 1021mb 50f 51f
12:50pm 8ft 9s 7s 18 20 mph 1021.6mb 49f 51f
11:50am 8.5ft 12s 7s 18 22 mph 1022.3mb 49f 51f
10:50am 8ft 10s 7s 16 20 mph 1022.8mb 49f 50f
9:50am 8ft 9s 7s 16 20 mph 1022.9mb 49f 50f
8:50am 7ft 12s 7s 13 18 mph 1023mb 49f 50f
7:50am 8ft 11s 7s 9 13 mph 1023.1mb 49f 50f
6:50am 8ft 9s 7s 16 18 mph 1022.6mb 49f 50f
5:50am 7.5ft 8s 7s 18 20 mph 1022.3mb 49f 50f
4:50am 7ft 8s 6s 18 20 mph 1022.5mb 49f 50f
3:50am 7.5ft 8s 6s 18 22 mph 1022.9mb 49f 50f
2:50am 9ft 8s 7s 20 25 mph 1023.5mb 49f 50f
1:50am 8ft 8s 7s 18 20 mph 1024.2mb 49f 50f
12:50am 8ft 9s 7s 18 22 mph 1024.4mb 50f 51f
Tue 04/14 11:50pm 8ft 11s 6s 20 25 mph 1024.7mb 50f 51f
10:50pm 9ft 8s 6s 25 27 mph 1024.9mb 50f 51f
9:50pm 10ft 7s 6s 25 29 mph 1025.4mb 50f 51f
8:50pm 11ft 8s 6s 25 31 mph 1025.2mb 50f 51f
7:50pm 9.5ft 11s 6s 31 38 mph 1024.7mb 50f 51f
6:50pm 9.5ft 8s 6s 29 34 mph 1025.3mb 50f 52f
5:50pm 8.5ft 11s 6s 27 34 mph 1025.9mb 50f 51f
4:50pm 8ft 11s 6s 27 34 mph 1026.5mb 50f 51f
3:50pm 8ft 10s 6s 22 27 mph 1027.1mb 50f 51f
2:50pm 7ft 11s 6s 20 27 mph 1027.9mb 50f 51f
1:50pm 7ft 11s 6s 20 25 mph 1028.2mb 50f 51f